createdAt,value
2019-01-18T00:00:01.081Z,5.08
2019-01-18T01:02:05.160Z,2.63
2019-01-18T01:07:06.454Z,2.87
2019-01-18T01:12:07.748Z,2.94
2019-01-18T01:17:09.065Z,3.06
2019-01-18T01:22:11.114Z,3.26
2019-01-18T01:27:15.928Z,3.48
2019-01-18T02:35:37.290Z,3.61
2019-01-18T02:40:38.567Z,3.92
2019-01-18T02:45:44.913Z,3.59
2019-01-18T02:50:46.227Z,3.42
2019-01-18T02:55:47.493Z,3.78
2019-01-18T04:04:10.351Z,3.08
2019-01-18T04:09:11.662Z,2.75
2019-01-18T04:14:13.686Z,2.86
2019-01-18T04:19:15.070Z,2.65
2019-01-18T04:24:16.364Z,2.72
2019-01-18T04:29:17.641Z,2.43
2019-01-18T05:31:19.277Z,3.20
2019-01-18T05:36:20.565Z,3.03
2019-01-18T05:41:21.830Z,3.40
2019-01-18T05:46:23.113Z,3.04
2019-01-18T05:51:24.408Z,3.17
2019-01-18T05:56:26.456Z,3.13
2019-01-18T07:04:48.805Z,3.31
2019-01-18T07:09:50.855Z,3.35
2019-01-18T07:14:55.494Z,3.43
2019-01-18T07:19:56.959Z,3.70
2019-01-18T07:24:58.273Z,3.15
2019-01-18T07:29:59.574Z,3.33
2019-01-18T08:32:03.199Z,3.43
2019-01-18T08:37:04.566Z,3.33
2019-01-18T08:42:05.976Z,3.50
2019-01-18T08:47:08.946Z,3.82
2019-01-18T08:52:10.300Z,4.09
2019-01-18T08:57:11.677Z,3.83
2019-01-18T10:05:35.424Z,4.31
2019-01-18T10:10:37.550Z,4.03
2019-01-18T10:15:38.897Z,4.57
2019-01-18T10:20:40.319Z,3.80
2019-01-18T10:25:41.764Z,4.44
2019-01-18T11:34:04.922Z,4.26
2019-01-18T11:39:06.961Z,3.94
2019-01-18T11:44:08.253Z,3.83
2019-01-18T11:49:09.532Z,4.37
2019-01-18T11:54:11.541Z,4.95
2019-01-18T11:59:12.804Z,5.01
2019-01-18T13:01:14.894Z,6.29
2019-01-18T13:06:16.187Z,5.61
2019-01-18T13:11:17.481Z,4.78
2019-01-18T13:16:18.763Z,5.14
2019-01-18T13:21:20.058Z,5.04
2019-01-18T13:26:22.128Z,5.01
2019-01-18T14:34:43.329Z,8.54
2019-01-18T14:39:44.673Z,8.48
2019-01-18T14:44:46.738Z,8.15
2019-01-18T14:49:48.675Z,7.61
2019-01-18T14:54:50.004Z,6.57
2019-01-18T14:59:51.418Z,6.43
2019-01-18T16:01:54.050Z,5.30
2019-01-18T16:06:55.453Z,5.30
2019-01-18T16:11:56.725Z,5.27
2019-01-18T16:16:58.067Z,5.21
2019-01-18T16:21:59.342Z,5.12
2019-01-18T16:27:00.640Z,5.03
2019-01-18T16:32:01.956Z,4.96
2019-01-18T16:37:03.254Z,4.93
2019-01-18T16:42:06.217Z,4.92
2019-01-18T16:47:09.614Z,4.93
2019-01-18T16:52:11.792Z,4.85
2019-01-18T16:57:13.841Z,4.78
2019-01-18T17:02:16.685Z,4.76
2019-01-18T17:07:36.483Z,4.66
2019-01-18T17:12:38.282Z,4.58
2019-01-18T17:17:54.209Z,4.62
2019-01-18T17:22:55.509Z,4.64
2019-01-18T17:27:57.529Z,4.55
2019-01-18T17:32:58.804Z,4.43
2019-01-18T17:38:00.122Z,4.41
2019-01-18T17:43:05.900Z,4.25
2019-01-18T17:48:19.108Z,4.45
2019-01-18T17:53:23.206Z,4.45
2019-01-18T17:58:33.627Z,4.45
2019-01-18T18:03:51.245Z,4.41
2019-01-18T18:09:08.381Z,4.39
2019-01-18T18:26:05.342Z,4.30
2019-01-18T18:36:53.802Z,4.50
2019-01-18T18:42:03.776Z,4.48
2019-01-18T18:47:27.842Z,4.27
2019-01-18T18:58:20.538Z,4.23
2019-01-18T19:03:32.477Z,4.27
2019-01-18T19:08:40.585Z,4.26
2019-01-18T19:14:15.753Z,4.20
2019-01-18T19:19:37.964Z,4.13
2019-01-18T19:24:47.101Z,4.05
2019-01-18T19:35:37.576Z,3.87
2019-01-18T19:41:07.924Z,3.96
2019-01-18T19:46:13.025Z,4.03
2019-01-18T19:51:42.097Z,3.98
2019-01-18T19:56:52.444Z,3.85
2019-01-18T20:02:25.635Z,3.73
2019-01-18T20:07:34.684Z,3.76
2019-01-18T20:12:45.685Z,3.65
2019-01-18T20:17:55.750Z,3.70
2019-01-18T20:23:07.920Z,3.66
2019-01-18T20:28:24.704Z,3.55
2019-01-18T20:39:33.780Z,3.41
2019-01-18T20:50:41.829Z,3.35
2019-01-18T20:56:07.670Z,3.32
2019-01-18T21:01:16.656Z,3.37
2019-01-18T21:18:29.027Z,3.20
2019-01-18T21:23:51.145Z,3.27
2019-01-18T21:35:17.973Z,3.08
2019-01-18T21:40:27.974Z,3.01
2019-01-18T21:51:39.644Z,2.92
2019-01-18T21:56:49.935Z,3.06
2019-01-18T22:01:55.661Z,3.05
2019-01-18T22:07:19.077Z,3.01
2019-01-18T22:18:28.506Z,2.85
2019-01-18T22:23:32.198Z,2.83
2019-01-18T22:28:57.291Z,2.81
2019-01-18T22:34:07.201Z,2.75
2019-01-18T22:39:35.362Z,2.50
2019-01-18T22:44:44.397Z,2.65
2019-01-18T22:49:47.544Z,2.68
2019-01-18T22:54:59.663Z,2.49
2019-01-18T23:00:18.180Z,2.32
2019-01-18T23:31:04.500Z,2.14
2019-01-18T23:36:12.103Z,2.24
2019-01-18T23:41:31.942Z,2.35
2019-01-18T23:46:47.156Z,2.31
2019-01-18T23:52:01.437Z,2.27
2019-01-18T23:57:09.557Z,2.40
